KQES

Daesan Rws

Daesan Rws, South Korea
METAR KQES 170820Z AUTO 33005KT 9999 BKN038 05/M02 A3011 RMK A02 TSNO
Observed Flight Rules
Dec-17 @ 08:20 UTC (12 minutes ago) Visual Flight Rules
Wind Visibility Clouds
330° at 5 knots 10,000+ meters
  • Broken at 3,800' AGL
Temperatures Readings
Current 5°C / 41°F
Dewpoint -2°C / 28°F
Humidity 61%
Altimeter 30.11" Hg
Pressure 1020 hPa
METAR KQES 170820Z AUTO 33005KT 9999 BKN038 05/M02 A3011 RMK A02 TSNO
Observed Flight Rules
Dec-17 @ 08:20 UTC
(12 minutes ago)
VFR
Wind Visibility
330° at 5 knots 10,000+ meters
Clouds
  • Broken at 3,800' AGL
Temperature Dewpoint
5°C / 41°F -2°C / 28°F
Humidity Altimeter Pressure
61% 30.11" Hg 1020 hPa